»·PEaware :: N416JK KBFL-KMRY

N416JK :: KBFL-KMRY

FLIGHT INFORMATION

Flight Status: Arrived
Operator: Privately registered:
United States
More flights under this callsign
Pilot: John K. (4202)
Aircraft: PIPER PA-46-310/350P MALIBU MIRAGE
(PA46)
More flights by this aircraft type
Origin: KBFL Meadows
United States
Destination: KMRY Monterey Peninsula
United States
More flights between these airports :: More routes between these airports
Route: +AVE MBARI LKHRN KSNS
File this flight plan on PilotEdge
Remarks:
Altitude:
(Current/Filed)
8,000ft
Speed:
(Current/Filed)
180kts
Departed: 25-Nov-20 08:35 AM
Arrived: 25-Nov-20 09:53 AM
Distance/Time
Traveled:
152nm/1:17
Distance/Time
To Go:
Arrived

Flight Plot

Page will automatically refresh every two minutes.

Flight plan parsing failed; only flown route is shown


Map Options




Map Legend


Flown Route
Filed Route
Departure Airport
Arrival Airport
Navaid (VOR, NDB)
Fix

Horizontal Profiles

Position Reports

Time Latitude Longitude Heading Altitude Ground
Speed
25-Nov-20 08:24 35.429663 -119.046622 136 500ft 0kts
25-Nov-20 08:25 35.429663 -119.046622 136 500ft 0kts
25-Nov-20 08:26 35.429663 -119.046622 136 500ft 0kts
25-Nov-20 08:27 35.429663 -119.046622 136 500ft 0kts
25-Nov-20 08:28 35.429663 -119.046622 136 500ft 0kts
25-Nov-20 08:29 35.429663 -119.046622 136 500ft 0kts
25-Nov-20 08:30 35.428409 -119.047208 181 493ft 9kts
25-Nov-20 08:31 35.426137 -119.044667 186 485ft 0kts
25-Nov-20 08:32 35.425876 -119.044940 225 484ft 8kts
25-Nov-20 08:33 35.425812 -119.045023 226 484ft 0kts
25-Nov-20 08:34 35.429734 -119.050976 317 566ft 87kts
25-Nov-20 08:35 35.454821 -119.080629 311 784ft 187kts
25-Nov-20 08:36 35.490243 -119.127246 314 1513ft 179kts
25-Nov-20 08:37 35.521534 -119.168490 314 2481ft 154kts
25-Nov-20 08:38 35.550121 -119.205351 314 3467ft 145kts
25-Nov-20 08:39 35.564266 -119.248970 280 4571ft 134kts
25-Nov-20 08:40 35.569629 -119.290742 282 5939ft 116kts
25-Nov-20 08:41 35.574016 -119.327310 284 7308ft 102kts
25-Nov-20 08:42 35.578591 -119.364050 284 8044ft 139kts
25-Nov-20 08:43 35.585060 -119.418948 282 8029ft 176kts
25-Nov-20 08:44 35.592034 -119.480055 282 8026ft 183kts
25-Nov-20 08:45 35.599178 -119.542589 282 8025ft 185kts
25-Nov-20 08:46 35.606175 -119.604189 282 8023ft 178kts
25-Nov-20 08:47 35.612893 -119.663374 281 8027ft 173kts
25-Nov-20 08:48 35.619570 -119.722286 281 8027ft 174kts
25-Nov-20 08:49 35.626208 -119.781169 281 8027ft 174kts
25-Nov-20 08:50 35.632860 -119.840647 282 8027ft 175kts
25-Nov-20 08:51 35.639507 -119.900211 281 8027ft 176kts
25-Nov-20 08:52 35.646131 -119.959879 281 8030ft 175kts
25-Nov-20 08:54 35.669467 -120.010039 308 8036ft 171kts
25-Nov-20 08:55 35.698540 -120.056443 309 8035ft 171kts
25-Nov-20 08:56 35.727927 -120.102562 309 8035ft 171kts
25-Nov-20 08:57 35.757304 -120.148584 309 8036ft 170kts
25-Nov-20 08:58 35.786516 -120.194406 309 8034ft 169kts
25-Nov-20 08:59 35.815548 -120.240032 309 8034ft 169kts
25-Nov-20 09:00 35.844580 -120.285683 309 8034ft 169kts
25-Nov-20 09:01 35.873747 -120.331636 309 8034ft 170kts
25-Nov-20 09:02 35.902716 -120.377324 309 8052ft 169kts
25-Nov-20 09:03 35.931780 -120.423221 309 8051ft 169kts
25-Nov-20 09:04 35.960597 -120.468795 309 8051ft 167kts
25-Nov-20 09:05 35.987826 -120.511949 309 8049ft 153kts
25-Nov-20 09:06 36.013360 -120.552431 309 8050ft 146kts
25-Nov-20 09:07 36.035382 -120.594385 300 8050ft 145kts
25-Nov-20 09:07 36.050753 -120.631254 299 8050ft 145kts
25-Nov-20 09:09 36.072062 -120.683186 299 8053ft 145kts
25-Nov-20 09:09 36.087269 -120.720412 299 8053ft 145kts
25-Nov-20 09:11 36.111805 -120.769775 309 8057ft 144kts
25-Nov-20 09:11 36.130522 -120.798191 310 8057ft 145kts
25-Nov-20 09:13 36.160483 -120.843099 310 8056ft 145kts
25-Nov-20 09:13 36.181927 -120.875161 310 8056ft 145kts
25-Nov-20 09:14 36.207583 -120.913537 310 8056ft 144kts
25-Nov-20 09:16 36.236822 -120.957332 310 8055ft 139kts
25-Nov-20 09:16 36.257266 -120.987936 310 8019ft 139kts
25-Nov-20 09:18 36.285995 -121.031069 310 8000ft 137kts
25-Nov-20 09:18 36.306202 -121.061435 310 8000ft 137kts
25-Nov-20 09:19 36.330357 -121.097755 310 8000ft 136kts
25-Nov-20 09:20 36.354436 -121.134179 309 8000ft 136kts
25-Nov-20 09:21 36.377841 -121.171095 309 7999ft 136kts
25-Nov-20 09:22 36.401818 -121.207463 310 7999ft 136kts
25-Nov-20 09:23 36.425831 -121.243761 310 7999ft 136kts
25-Nov-20 09:24 36.449744 -121.279937 310 7999ft 135kts
25-Nov-20 09:25 36.473610 -121.316082 310 7998ft 134kts
25-Nov-20 09:26 36.497237 -121.351903 310 7998ft 134kts
25-Nov-20 09:27 36.520920 -121.387847 310 7998ft 134kts
25-Nov-20 09:28 36.544502 -121.423676 310 7998ft 134kts
25-Nov-20 09:29 36.563805 -121.467475 297 7395ft 162kts
25-Nov-20 09:30 36.583564 -121.519402 297 6486ft 164kts
25-Nov-20 09:31 36.601181 -121.569109 292 5908ft 141kts
25-Nov-20 09:32 36.612574 -121.609898 292 5909ft 111kts
25-Nov-20 09:33 36.621677 -121.643832 292 5911ft 96kts
25-Nov-20 09:34 36.629157 -121.673001 292 5995ft 80kts
25-Nov-20 09:35 36.637008 -121.703162 292 6023ft 124kts
25-Nov-20 09:36 36.650999 -121.750993 292 6004ft 161kts
25-Nov-20 09:37 36.666066 -121.803691 292 5997ft 156kts
25-Nov-20 09:38 36.679719 -121.852943 292 5995ft 141kts
25-Nov-20 09:39 36.692644 -121.899856 292 5272ft 157kts
25-Nov-20 09:40 36.707395 -121.951538 293 4007ft 148kts
25-Nov-20 09:41 36.718625 -121.992386 293 4025ft 116kts
25-Nov-20 09:42 36.727956 -122.027170 293 3995ft 99kts
25-Nov-20 09:43 36.729881 -122.059634 231 3851ft 120kts
25-Nov-20 09:44 36.694039 -122.075576 204 3031ft 142kts
25-Nov-20 09:45 36.662614 -122.060640 143 2994ft 119kts
25-Nov-20 09:46 36.647998 -122.027194 105 2993ft 106kts
25-Nov-20 09:47 36.636047 -121.989918 109 2462ft 121kts
25-Nov-20 09:48 36.624101 -121.954295 109 1841ft 99kts
25-Nov-20 09:49 36.614147 -121.924766 109 1347ft 88kts
25-Nov-20 09:50 36.603222 -121.892445 111 821ft 108kts
25-Nov-20 09:51 36.592844 -121.862436 107 327ft 81kts
25-Nov-20 09:52 36.587476 -121.847542 223 186ft 7kts
25-Nov-20 09:53 36.588139 -121.850159 293 171ft 24kts
25-Nov-20 09:54 36.588550 -121.853108 94 164ft 0kts
25-Nov-20 09:55 36.588550 -121.853108 94 164ft 0kts

Navigation Log

Ident Type
Flight plan parsing failed, navigation log unavailable